Time;durP1;ratioP1;P1;durP2;ratioP2;P2;SDS_P1;SDS_P2;PMS_P1;PMS_P2;Temp;Humidity;BMP_temperature;BMP_pressure;BME280_temperature;BME280_humidity;BME280_pressure;Samples;Min_cycle;Max_cycle;Signal;HPM_P1;HPM_P2
2021/06/08 00:01:04;;;;;;;1127.23;789.47;;;;;;;17.01;100.00;101318.75;5143086;27;20166;-69
2021/06/08 00:03:31;;;;;;;1322.33;949.67;;;;;;;16.92;100.00;101309.72;5142522;27;20832;-69
2021/06/08 00:05:56;;;;;;;1245.03;880.80;;;;;;;16.96;100.00;101308.50;5148810;27;21016;-69
2021/06/08 00:08:22;;;;;;;1659.57;870.57;;;;;;;16.86;100.00;101303.13;5138351;27;20452;-68
2021/06/08 00:10:47;;;;;;;1308.67;890.67;;;;;;;16.90;100.00;101304.53;5134097;27;20178;-70
2021/06/08 00:13:13;;;;;;;1660.90;879.47;;;;;;;16.88;100.00;101300.34;5146001;27;20161;-70
2021/06/08 00:15:39;;;;;;;1401.90;712.60;;;;;;;16.80;100.00;101298.34;5147651;27;20648;-75
2021/06/08 00:18:04;;;;;;;1825.40;923.47;;;;;;;16.72;100.00;101298.13;5153723;27;20214;-68
2021/06/08 00:20:30;;;;;;;1999.90;999.90;;;;;;;16.59;100.00;101300.09;5154561;27;20161;-69
2021/06/08 00:22:56;;;;;;;1999.90;999.90;;;;;;;16.56;100.00;101287.09;5152137;27;20189;-68
2021/06/08 00:25:22;;;;;;;1620.97;923.60;;;;;;;16.53;100.00;101289.97;5134553;27;20216;-70
2021/06/08 00:27:47;;;;;;;1999.90;999.90;;;;;;;16.51;100.00;101289.28;5133710;27;20175;-78
2021/06/08 00:30:13;;;;;;;685.07;330.33;;;;;;;16.45;100.00;101287.97;5152782;27;20446;-80
2021/06/08 00:32:39;;;;;;;1005.40;652.60;;;;;;;16.46;100.00;101281.69;5154522;27;20614;-78
2021/06/08 00:35:06;;;;;;;889.57;520.50;;;;;;;16.47;100.00;101288.66;5153406;27;20197;-78
2021/06/08 00:37:31;;;;;;;747.57;632.50;;;;;;;16.45;100.00;101287.13;5154356;27;20383;-78
2021/06/08 00:39:57;;;;;;;1331.67;797.93;;;;;;;16.34;100.00;101283.56;5151808;27;20962;-74
2021/06/08 00:42:30;;;;;;;1999.90;999.90;;;;;;;16.25;100.00;101281.66;5154033;27;20146;-70
2021/06/08 00:44:55;;;;;;;1050.43;566.87;;;;;;;16.17;100.00;101284.09;5137923;27;20237;-70
2021/06/08 00:47:21;;;;;;;1533.70;770.10;;;;;;;16.18;100.00;101285.78;5138932;27;20399;-69
2021/06/08 00:49:46;;;;;;;750.83;454.00;;;;;;;16.13;100.00;101281.81;5148389;27;20169;-69
2021/06/08 00:52:12;;;;;;;1999.90;999.90;;;;;;;16.23;100.00;101280.09;5145955;27;20214;-72
2021/06/08 00:54:37;;;;;;;645.47;380.30;;;;;;;16.23;100.00;101274.78;5153674;27;20276;-69
2021/06/08 00:57:03;;;;;;;1999.90;999.90;;;;;;;16.18;100.00;101279.63;5154053;27;20154;-72
2021/06/08 00:59:29;;;;;;;690.77;583.10;;;;;;;16.16;100.00;101274.44;5151041;27;20174;-69
2021/06/08 01:01:54;;;;;;;747.27;519.37;;;;;;;16.13;100.00;101274.69;5153659;27;20435;-68
2021/06/08 01:04:20;;;;;;;534.17;339.33;;;;;;;16.11;100.00;101275.81;5152953;27;20688;-69
2021/06/08 01:06:48;;;;;;;1999.90;999.90;;;;;;;16.05;100.00;101269.19;5151610;27;20165;-73
2021/06/08 01:09:14;;;;;;;894.67;660.97;;;;;;;15.97;100.00;101268.97;5153898;27;20150;-72
2021/06/08 01:11:39;;;;;;;1650.70;817.80;;;;;;;16.06;100.00;101270.88;5153674;27;20391;-78
2021/06/08 01:14:05;;;;;;;676.77;438.10;;;;;;;16.02;100.00;101270.28;5153330;27;20452;-68
2021/06/08 01:16:31;;;;;;;1999.90;999.90;;;;;;;15.94;100.00;101271.84;5153503;27;20297;-68
2021/06/08 01:18:58;;;;;;;1640.30;875.53;;;;;;;15.95;100.00;101262.97;5153616;27;20383;-69
2021/06/08 01:21:24;;;;;;;799.07;384.43;;;;;;;15.97;100.00;101263.66;5152219;27;20403;-73
2021/06/08 01:23:49;;;;;;;1483.03;743.77;;;;;;;15.92;100.00;101261.38;5152610;27;20774;-70
2021/06/08 01:26:16;;;;;;;1231.77;604.90;;;;;;;15.86;100.00;101266.31;5152948;27;20406;-69
2021/06/08 01:28:44;;;;;;;1197.60;633.97;;;;;;;15.90;100.00;101265.13;5153248;27;20588;-79
2021/06/08 01:31:13;;;;;;;1644.90;842.10;;;;;;;15.93;100.00;101267.50;5153352;27;20486;-71
2021/06/08 01:33:43;;;;;;;648.37;343.03;;;;;;;15.89;100.00;101260.78;5153061;27;20477;-77
2021/06/08 01:36:12;;;;;;;1151.13;761.43;;;;;;;15.86;100.00;101268.97;5144359;27;20435;-77
2021/06/08 01:38:40;;;;;;;1999.90;999.90;;;;;;;15.74;100.00;101274.31;5136581;27;20473;-76
2021/06/08 01:41:05;;;;;;;1999.90;999.90;;;;;;;15.73;100.00;101269.13;5153182;27;20407;-75
2021/06/08 01:43:31;;;;;;;238.23;86.17;;;;;;;15.72;100.00;101270.94;5152044;27;20414;-68
2021/06/08 01:45:57;;;;;;;1999.90;999.90;;;;;;;15.68;100.00;101272.13;5153139;27;20158;-71
2021/06/08 01:48:23;;;;;;;1398.83;759.33;;;;;;;15.62;100.00;101272.63;5150959;27;20850;-68
2021/06/08 01:50:50;;;;;;;1999.90;999.90;;;;;;;15.58;100.00;101278.28;5134179;27;20174;-70
2021/06/08 01:53:29;;;;;;;1195.47;590.13;;;;;;;15.58;100.00;101280.91;5140711;27;20588;-67
2021/06/08 01:56:01;;;;;;;1999.90;999.90;;;;;;;15.58;100.00;101270.31;5131624;27;20394;-69
2021/06/08 01:58:42;;;;;;;849.97;759.73;;;;;;;15.59;100.00;101278.16;5140813;27;20402;-69
2021/06/08 02:01:39;;;;;;;1421.83;693.50;;;;;;;15.56;100.00;101278.38;5152978;27;20391;-71
2021/06/08 02:04:18;;;;;;;1200.20;553.43;;;;;;;15.59;100.00;101280.78;5152807;27;20403;-72
2021/06/08 02:07:06;;;;;;;1466.27;715.20;;;;;;;15.64;100.00;101286.63;5151630;27;20410;-75
2021/06/08 02:09:46;;;;;;;1999.90;999.90;;;;;;;15.66;100.00;101284.69;5152559;27;20471;-69
2021/06/08 02:12:20;;;;;;;1999.90;999.90;;;;;;;15.67;100.00;101281.06;5146689;27;20399;-78
2021/06/08 02:15:07;;;;;;;1999.90;999.90;;;;;;;15.67;100.00;101281.06;5132186;28;20829;-80
2021/06/08 02:17:41;;;;;;;1999.90;999.90;;;;;;;15.63;100.00;101292.00;5144523;27;20479;-78
2021/06/08 02:20:20;;;;;;;582.00;520.93;;;;;;;15.71;100.00;101285.13;5152892;27;20396;-78
2021/06/08 02:22:51;;;;;;;1999.90;999.90;;;;;;;15.69;100.00;101289.72;5139863;27;20431;-78
2021/06/08 02:25:18;;;;;;;1999.90;999.90;;;;;;;15.72;100.00;101286.84;5152603;27;20403;-74
2021/06/08 02:27:45;;;;;;;828.03;397.53;;;;;;;15.65;100.00;101287.44;5152458;27;20379;-70
2021/06/08 02:30:12;;;;;;;1999.90;999.90;;;;;;;15.73;100.00;101290.34;5150490;27;20481;-67
2021/06/08 02:32:39;;;;;;;1999.90;999.90;;;;;;;15.77;100.00;101276.69;5150075;27;20403;-68
2021/06/08 02:35:06;;;;;;;594.40;421.53;;;;;;;15.75;100.00;101283.09;5136403;27;20530;-69
2021/06/08 02:37:33;;;;;;;1999.90;999.90;;;;;;;15.80;100.00;101286.22;5152315;27;20423;-72
2021/06/08 02:40:00;;;;;;;1999.90;999.90;;;;;;;15.81;100.00;101283.44;5143922;27;22225;-69
2021/06/08 02:42:26;;;;;;;1999.90;999.90;;;;;;;15.77;100.00;101295.25;5119937;28;20802;-69
2021/06/08 02:44:53;;;;;;;1593.70;840.23;;;;;;;15.80;100.00;101283.59;5132027;28;20396;-69
2021/06/08 02:47:20;;;;;;;866.23;451.27;;;;;;;15.79;100.00;101284.53;5131579;28;20241;-71
2021/06/08 02:49:48;;;;;;;674.77;321.10;;;;;;;15.84;100.00;101292.13;5131775;28;20376;-70
2021/06/08 02:52:19;;;;;;;513.20;194.07;;;;;;;15.78;100.00;101299.56;5139411;27;20904;-70
2021/06/08 02:54:46;;;;;;;846.57;397.40;;;;;;;15.77;100.00;101292.59;5151568;27;20508;-70
2021/06/08 02:57:12;;;;;;;945.80;546.23;;;;;;;15.68;100.00;101295.16;5151601;27;20899;-70
2021/06/08 02:59:40;;;;;;;1555.03;800.30;;;;;;;15.75;100.00;101283.94;5143603;27;20911;-69
2021/06/08 03:02:11;;;;;;;1999.90;999.90;;;;;;;15.75;100.00;101286.59;5147399;27;20170;-71
2021/06/08 03:04:51;;;;;;;1583.07;805.00;;;;;;;15.72;100.00;101286.84;5155924;27;20423;-69
2021/06/08 03:07:21;;;;;;;1523.27;769.40;;;;;;;15.68;100.00;101277.44;5117751;27;20424;-68
2021/06/08 03:10:09;;;;;;;1999.90;999.90;;;;;;;15.60;100.00;101278.97;5135081;27;20795;-72
2021/06/08 03:12:40;;;;;;;1432.97;701.97;;;;;;;15.69;100.00;101273.81;5138925;27;20460;-79
2021/06/08 03:15:07;;;;;;;1464.50;732.67;;;;;;;15.70;100.00;101272.84;5152343;27;20451;-73
2021/06/08 03:17:36;;;;;;;364.27;195.63;;;;;;;15.77;100.00;101282.00;5148000;27;20404;-73
2021/06/08 03:20:11;;;;;;;1999.90;999.90;;;;;;;15.78;100.00;101277.53;5137156;27;20468;-77
2021/06/08 03:22:40;;;;;;;836.50;398.50;;;;;;;15.77;100.00;101276.69;5136471;27;20941;-80
2021/06/08 03:25:06;;;;;;;859.07;459.33;;;;;;;15.78;100.00;101272.25;5145480;27;20402;-75
2021/06/08 03:27:32;;;;;;;1999.90;999.90;;;;;;;15.79;100.00;101277.44;5149106;27;20480;-69
2021/06/08 03:29:59;;;;;;;1470.40;732.73;;;;;;;15.77;100.00;101283.81;5135135;27;20552;-71
2021/06/08 03:32:25;;;;;;;1999.90;999.90;;;;;;;15.81;100.00;101283.44;5152596;27;20456;-67
2021/06/08 03:34:51;;;;;;;1999.90;999.90;;;;;;;15.74;100.00;101279.59;5153374;27;20474;-68
2021/06/08 03:37:19;;;;;;;1740.70;870.00;;;;;;;15.89;100.00;101289.94;5146513;27;20438;-68
2021/06/08 03:39:47;;;;;;;940.40;430.27;;;;;;;15.87;100.00;101287.44;5155269;27;20453;-74
2021/06/08 03:42:13;;;;;;;1482.03;747.10;;;;;;;15.92;100.00;101289.69;5153896;27;20433;-67
2021/06/08 03:44:39;;;;;;;1999.90;999.90;;;;;;;15.90;100.00;101296.94;5154615;27;20407;-67
2021/06/08 03:47:05;;;;;;;1999.90;999.90;;;;;;;15.93;100.00;101307.28;5155434;27;20162;-74
2021/06/08 03:49:32;;;;;;;1396.57;854.57;;;;;;;15.98;100.00;101305.09;5133658;27;20404;-76
2021/06/08 03:51:58;;;;;;;840.30;393.90;;;;;;;15.95;100.00;101302.72;5134063;27;20578;-73
2021/06/08 03:54:24;;;;;;;1999.90;999.90;;;;;;;16.04;100.00;101301.97;5118930;27;20451;-71
2021/06/08 03:56:54;;;;;;;1999.90;999.90;;;;;;;16.13;100.00;101305.69;5123824;27;20202;-68
2021/06/08 03:59:23;;;;;;;1408.30;734.23;;;;;;;16.14;100.00;101296.75;5126136;27;20420;-76
2021/06/08 04:01:49;;;;;;;1999.90;999.90;;;;;;;16.18;100.00;101296.38;5122791;27;20784;-74
2021/06/08 04:04:17;;;;;;;1219.27;573.03;;;;;;;16.24;100.00;101293.22;5132853;27;20465;-77
2021/06/08 04:06:44;;;;;;;1999.90;999.90;;;;;;;16.32;100.00;101290.81;5117996;27;20440;-73
2021/06/08 04:09:10;;;;;;;1254.27;965.57;;;;;;;16.41;100.00;101299.81;5126554;27;20495;-69
2021/06/08 04:11:37;;;;;;;645.20;408.67;;;;;;;16.51;100.00;101299.88;5130411;27;20500;-81
2021/06/08 04:14:04;;;;;;;1999.90;999.90;;;;;;;16.67;100.00;101296.78;5122350;27;20270;-68
2021/06/08 04:16:33;;;;;;;971.10;463.13;;;;;;;16.78;100.00;101304.75;5127170;27;20790;-69
2021/06/08 04:18:58;;;;;;;580.37;295.20;;;;;;;16.85;100.00;101314.72;5131276;27;20427;-71
2021/06/08 04:21:25;;;;;;;629.07;362.80;;;;;;;16.91;100.00;101300.91;5129836;27;20420;-69
2021/06/08 04:23:55;;;;;;;767.43;445.87;;;;;;;16.98;100.00;101300.41;5133521;27;20163;-70
2021/06/08 04:26:20;;;;;;;917.67;669.53;;;;;;;16.95;100.00;101301.50;5132331;27;20396;-68
2021/06/08 04:28:46;;;;;;;704.37;460.50;;;;;;;16.97;100.00;101296.91;5122071;27;20802;-71
2021/06/08 04:31:11;;;;;;;897.77;664.47;;;;;;;17.00;100.00;101303.75;5113311;27;20245;-68
2021/06/08 04:33:37;;;;;;;889.37;569.63;;;;;;;17.00;100.00;101317.88;5112577;27;20553;-70
2021/06/08 04:36:03;;;;;;;1662.37;886.67;;;;;;;17.07;100.00;101305.75;5126140;27;20174;-69
2021/06/08 04:38:29;;;;;;;1071.47;768.90;;;;;;;17.07;100.00;101313.72;5132407;27;20443;-74
2021/06/08 04:40:54;;;;;;;1009.83;747.53;;;;;;;17.15;100.00;101313.06;5131586;27;20814;-77
2021/06/08 04:43:25;;;;;;;1071.67;749.17;;;;;;;17.15;100.00;101313.06;5132830;27;20174;-78
2021/06/08 04:45:52;;;;;;;1396.67;716.40;;;;;;;17.14;100.00;101322.00;5133305;27;20624;-81
2021/06/08 04:48:21;;;;;;;1152.13;763.13;;;;;;;17.09;100.00;101326.91;5143315;27;20462;-74
2021/06/08 04:50:50;;;;;;;848.57;601.80;;;;;;;17.17;100.00;101322.63;5142255;27;20408;-76
2021/06/08 04:53:16;;;;;;;1177.47;781.20;;;;;;;17.27;100.00;101327.13;5139515;27;20404;-66
2021/06/08 04:55:41;;;;;;;1212.57;855.97;;;;;;;17.34;100.00;101325.63;5149709;27;20450;-68
2021/06/08 04:58:08;;;;;;;1170.37;878.03;;;;;;;17.55;100.00;101320.28;5153660;27;20387;-67
2021/06/08 05:00:48;;;;;;;1135.50;925.80;;;;;;;17.69;100.00;101319.94;5154499;27;20595;-73
2021/06/08 05:03:22;;;;;;;1091.80;836.80;;;;;;;17.80;100.00;101321.66;5152915;27;20451;-75
2021/06/08 05:05:55;;;;;;;1372.13;939.43;;;;;;;17.94;100.00;101326.63;5152174;27;20422;-68
2021/06/08 05:08:26;;;;;;;1171.80;940.00;;;;;;;18.02;100.00;101305.50;5145591;27;20412;-77
2021/06/08 05:11:15;;;;;;;1182.60;969.53;;;;;;;18.11;100.00;101317.97;5132688;27;20464;-77
2021/06/08 05:13:47;;;;;;;1432.60;943.93;;;;;;;18.19;100.00;101323.44;5135311;27;20438;-79
2021/06/08 05:16:14;;;;;;;1294.90;976.60;;;;;;;18.44;100.00;101318.56;5151343;27;20400;-75
2021/06/08 05:18:46;;;;;;;1263.53;901.17;;;;;;;18.70;100.00;101317.06;5150844;27;20403;-73
2021/06/08 05:21:14;;;;;;;1111.73;968.33;;;;;;;18.72;100.00;101311.59;5151131;27;20392;-70
2021/06/08 05:23:41;;;;;;;1206.57;999.90;;;;;;;18.83;100.00;101309.63;5151357;27;20402;-74
2021/06/08 05:26:09;;;;;;;1420.37;955.97;;;;;;;18.96;100.00;101311.16;5150670;27;20486;-70
2021/06/08 05:28:38;;;;;;;1096.70;978.10;;;;;;;19.03;100.00;101317.59;5150451;27;20452;-70
2021/06/08 05:31:04;;;;;;;1437.63;999.90;;;;;;;19.10;100.00;101318.69;5150895;27;20449;-70
2021/06/08 05:33:29;;;;;;;1125.77;994.70;;;;;;;19.35;100.00;101314.59;5152917;27;20422;-74
2021/06/08 05:35:56;;;;;;;1156.53;999.90;;;;;;;19.52;100.00;101308.47;5152106;27;20168;-71
2021/06/08 05:38:29;;;;;;;1094.17;980.57;;;;;;;19.60;100.00;101313.94;5132485;27;20194;-71
2021/06/08 05:40:55;;;;;;;1543.37;999.90;;;;;;;19.68;100.00;101310.53;5132309;27;20549;-68
2021/06/08 05:43:21;;;;;;;1092.27;978.67;;;;;;;19.83;100.00;101314.41;5132159;27;20388;-69
2021/06/08 05:45:49;;;;;;;1452.27;999.90;;;;;;;19.80;100.00;101305.84;5152518;27;20411;-68
2021/06/08 05:48:15;;;;;;;1102.07;986.17;;;;;;;19.66;100.00;101310.69;5152527;27;20473;-73
2021/06/08 05:50:40;;;;;;;1088.60;979.70;;;;;;;19.77;100.00;101311.47;5152053;27;20979;-69
2021/06/08 05:53:06;;;;;;;1069.60;956.57;;;;;;;19.88;100.00;101305.97;5152710;27;20161;-72
2021/06/08 05:55:36;;;;;;;1359.60;999.90;;;;;;;19.98;100.00;101298.72;5152658;27;20212;-68
2021/06/08 05:58:03;;;;;;;1086.30;977.70;;;;;;;19.95;100.00;101305.22;5151696;27;20173;-76
2021/06/08 06:00:31;;;;;;;1118.77;996.43;;;;;;;19.96;100.00;101295.38;5152977;27;20506;-69
2021/06/08 06:02:56;;;;;;;1339.57;999.90;;;;;;;20.17;100.00;101293.25;5152099;27;20421;-68
2021/06/08 06:05:22;;;;;;;977.03;888.70;;;;;;;20.19;100.00;101298.47;5151244;27;20844;-74
2021/06/08 06:07:48;;;;;;;962.77;872.47;;;;;;;20.31;100.00;101291.91;5150978;27;20168;-71
2021/06/08 06:10:13;;;;;;;990.43;896.73;;;;;;;20.52;100.00;101288.97;5141166;27;20161;-67
2021/06/08 06:12:40;;;;;;;981.17;885.60;;;;;;;20.72;100.00;101287.81;5152447;27;20249;-74
2021/06/08 06:15:08;;;;;;;979.80;888.97;;;;;;;20.82;100.00;101295.72;5152455;27;20185;-68
2021/06/08 06:17:39;;;;;;;998.53;909.03;;;;;;;20.91;100.00;101293.94;5152756;27;20396;-68
2021/06/08 06:20:11;;;;;;;1013.90;922.03;;;;;;;20.93;100.00;101291.94;5152341;27;20394;-67
2021/06/08 06:22:38;;;;;;;1023.20;920.67;;;;;;;21.05;100.00;101296.03;5152567;27;20399;-68
2021/06/08 06:25:09;;;;;;;903.63;824.73;;;;;;;21.01;100.00;101290.19;5152493;27;20388;-68
2021/06/08 06:27:42;;;;;;;1020.23;924.30;;;;;;;21.20;100.00;101294.47;5152512;27;20857;-68
2021/06/08 06:30:10;;;;;;;896.43;820.77;;;;;;;21.12;100.00;101297.09;5152645;27;20394;-68
2021/06/08 06:32:37;;;;;;;838.27;769.03;;;;;;;21.30;100.00;101289.03;5152346;27;20391;-69
2021/06/08 06:35:04;;;;;;;917.70;840.63;;;;;;;21.40;100.00;101289.78;5152117;27;20446;-69
2021/06/08 06:37:31;;;;;;;984.97;892.63;;;;;;;21.62;100.00;101287.53;5150775;27;20406;-68
2021/06/08 06:40:00;;;;;;;908.53;834.60;;;;;;;21.82;100.00;101284.41;5154772;27;20402;-67
2021/06/08 06:42:33;;;;;;;888.27;817.87;;;;;;;21.89;100.00;101273.91;5156241;27;20379;-71
2021/06/08 06:44:59;;;;;;;908.03;837.83;;;;;;;21.97;100.00;101276.59;5156173;27;20409;-76
2021/06/08 06:47:25;;;;;;;880.57;814.67;;;;;;;22.12;100.00;101275.00;5155925;27;20760;-78
2021/06/08 06:49:51;;;;;;;834.37;772.27;;;;;;;22.17;100.00;101269.16;5155898;27;20399;-79
2021/06/08 06:52:17;;;;;;;798.07;738.67;;;;;;;22.25;100.00;101269.16;5156041;27;20692;-73
2021/06/08 06:54:44;;;;;;;864.10;800.70;;;;;;;22.41;100.00;101266.50;5137477;27;20193;-78
2021/06/08 06:57:10;;;;;;;834.73;771.43;;;;;;;22.53;100.00;101258.16;5143899;27;20464;-74
2021/06/08 06:59:38;;;;;;;751.97;691.90;;;;;;;22.58;100.00;101261.13;5112037;27;20952;-76
2021/06/08 07:02:05;;;;;;;747.27;695.07;;;;;;;22.63;100.00;101264.16;5133265;27;20921;-79
2021/06/08 07:04:31;;;;;;;769.23;715.70;;;;;;;22.74;100.00;101261.13;5119356;27;20802;-76
2021/06/08 07:06:57;;;;;;;699.57;651.00;;;;;;;22.89;100.00;101262.13;5134998;27;20403;-69
2021/06/08 07:09:27;;;;;;;707.27;656.07;;;;;;;23.02;100.00;101255.44;5141800;27;20392;-75
2021/06/08 07:11:54;;;;;;;683.07;634.13;;;;;;;23.17;100.00;101254.53;5145882;27;20451;-72
2021/06/08 07:14:20;;;;;;;571.23;532.53;;;;;;;23.26;100.00;101250.81;5132974;27;20920;-78
2021/06/08 07:16:48;;;;;;;597.27;557.43;;;;;;;23.29;100.00;101249.66;5144027;27;20403;-76
2021/06/08 07:19:14;;;;;;;570.57;530.37;;;;;;;23.37;100.00;101254.16;5156109;27;20391;-74
2021/06/08 07:21:42;;;;;;;628.37;584.60;;;;;;;23.49;100.00;101252.75;5156215;27;20387;-75
2021/06/08 07:24:09;;;;;;;596.97;554.67;;;;;;;23.64;100.00;101252.88;5125239;27;20424;-67
2021/06/08 07:26:34;;;;;;;469.17;437.23;;;;;;;23.78;100.00;101250.28;5151706;27;20728;-76
2021/06/08 07:29:02;;;;;;;462.43;431.27;;;;;;;23.90;100.00;101247.22;5128786;27;20415;-76
2021/06/08 07:31:36;;;;;;;367.53;343.37;;;;;;;23.93;100.00;101245.00;5113217;27;20168;-71
2021/06/08 07:34:06;;;;;;;400.77;374.40;;;;;;;24.13;100.00;101245.38;5130428;27;20531;-68
2021/06/08 07:36:45;;;;;;;270.93;251.53;;;;;;;24.17;100.00;101241.31;5134992;27;20894;-72
2021/06/08 07:39:40;;;;;;;199.20;183.43;;;;;;;24.28;100.00;101237.41;5130699;27;20506;-72
2021/06/08 07:42:11;;;;;;;212.70;196.80;;;;;;;24.40;100.00;101238.66;5141435;27;20408;-69
2021/06/08 07:45:01;;;;;;;192.80;177.33;;;;;;;24.51;100.00;101242.78;5133259;27;20428;-71
2021/06/08 07:47:30;;;;;;;230.10;213.57;;;;;;;24.50;100.00;101247.31;5135293;27;20455;-69
2021/06/08 07:49:58;;;;;;;347.90;324.73;;;;;;;24.54;100.00;101248.59;5152488;27;20423;-70
2021/06/08 07:52:24;;;;;;;397.50;371.30;;;;;;;24.50;100.00;101254.53;5153390;27;20403;-71
2021/06/08 07:54:51;;;;;;;505.10;472.40;;;;;;;24.42;100.00;101258.13;5153198;27;21101;-67
2021/06/08 07:57:21;;;;;;;667.87;621.57;;;;;;;24.44;100.00;101263.31;5153155;27;20771;-69
2021/06/08 07:59:47;;;;;;;627.67;582.47;;;;;;;24.34;100.00;101264.41;5152905;27;20431;-70
2021/06/08 08:02:18;;;;;;;571.80;532.37;;;;;;;24.32;100.00;101261.03;5149355;27;20902;-78
2021/06/08 08:04:56;;;;;;;615.57;573.17;;;;;;;24.29;100.00;101263.22;5134141;27;20403;-71
2021/06/08 08:07:23;;;;;;;626.60;583.03;;;;;;;24.31;100.00;101263.88;5133933;27;20427;-80
2021/06/08 08:09:50;;;;;;;519.10;483.83;;;;;;;24.42;100.00;101260.81;5133846;27;20456;-83
2021/06/08 08:12:16;;;;;;;689.30;641.67;;;;;;;24.43;100.00;101267.03;5134127;27;20405;-77
2021/06/08 08:14:44;;;;;;;552.10;515.40;;;;;;;24.56;100.00;101267.22;5133841;27;20475;-66
2021/06/08 08:17:11;;;;;;;582.53;543.60;;;;;;;24.52;100.00;101266.78;5133477;27;20976;-71
2021/06/08 08:19:38;;;;;;;561.70;523.23;;;;;;;24.54;100.00;101266.59;5133696;27;20415;-70
2021/06/08 08:22:04;;;;;;;669.03;623.03;;;;;;;24.60;100.00;101272.06;5133627;27;20437;-68
2021/06/08 08:24:30;;;;;;;702.33;652.57;;;;;;;24.48;100.00;101265.44;5142515;27;20958;-69
2021/06/08 08:26:55;;;;;;;650.70;606.60;;;;;;;24.48;100.00;101265.44;5140503;27;20404;-72
2021/06/08 08:29:21;;;;;;;689.07;639.90;;;;;;;24.45;100.00;101259.63;5133583;27;20204;-74
2021/06/08 08:31:46;;;;;;;633.53;587.93;;;;;;;24.46;100.00;101267.50;5133237;27;20545;-77
2021/06/08 08:34:12;;;;;;;605.17;562.40;;;;;;;24.51;100.00;101259.72;5133593;27;20190;-76
2021/06/08 08:36:38;;;;;;;510.50;476.53;;;;;;;24.60;100.00;101257.81;5114580;27;20162;-71
2021/06/08 08:39:06;;;;;;;608.63;566.40;;;;;;;24.72;100.00;101261.75;5133309;27;20606;-77
2021/06/08 08:41:32;;;;;;;562.70;524.50;;;;;;;24.78;100.00;101261.00;5133283;27;20207;-72
2021/06/08 08:43:58;;;;;;;501.33;465.63;;;;;;;24.81;100.00;101259.81;5133528;27;20400;-76
2021/06/08 08:46:23;;;;;;;569.13;532.87;;;;;;;24.84;100.00;101259.44;5136795;27;20411;-73
2021/06/08 08:48:54;;;;;;;570.23;531.67;;;;;;;25.00;100.00;101263.81;5132764;27;20688;-81
2021/06/08 08:51:21;;;;;;;691.67;640.43;;;;;;;25.00;100.00;101263.81;5132749;27;20159;-80
2021/06/08 08:54:02;;;;;;;775.33;719.87;;;;;;;24.83;100.00;101266.66;5119722;27;20555;-73
2021/06/08 08:56:49;;;;;;;788.13;733.17;;;;;;;24.84;100.00;101260.25;5132984;27;20487;-81
2021/06/08 08:59:16;;;;;;;740.97;688.57;;;;;;;24.98;100.00;101268.53;5131062;27;20178;-77
2021/06/08 09:01:46;;;;;;;737.50;683.87;;;;;;;25.06;100.00;101263.09;5131898;27;20388;-73
2021/06/08 09:04:13;;;;;;;725.53;674.03;;;;;;;25.09;100.00;101262.72;5132364;27;20396;-80
2021/06/08 09:06:39;;;;;;;720.67;669.17;;;;;;;25.07;100.00;101265.59;5132338;27;20535;-74
2021/06/08 09:09:07;;;;;;;761.53;708.10;;;;;;;25.05;100.00;101259.59;5132490;27;20977;-74
2021/06/08 09:11:38;;;;;;;716.10;666.90;;;;;;;25.13;100.00;101253.28;5139988;27;20411;-78
2021/06/08 09:14:05;;;;;;;718.80;668.33;;;;;;;25.27;100.00;101260.53;5152571;27;20435;-75
2021/06/08 09:16:31;;;;;;;671.13;621.70;;;;;;;25.35;100.00;101246.97;5153035;27;20852;-75
2021/06/08 09:19:01;;;;;;;650.00;604.17;;;;;;;25.43;100.00;101252.25;5152708;27;20395;-74
2021/06/08 09:21:28;;;;;;;618.03;574.87;;;;;;;25.49;100.00;101253.34;5134547;27;20974;-79
2021/06/08 09:23:54;;;;;;;698.00;648.63;;;;;;;25.39;100.00;101253.66;5152686;27;20455;-77
2021/06/08 09:26:19;;;;;;;562.93;524.87;;;;;;;25.51;100.00;101242.41;5152159;27;20403;-78
2021/06/08 09:28:46;;;;;;;533.87;497.17;;;;;;;25.78;100.00;101243.59;5152451;27;20264;-74
2021/06/08 09:31:21;;;;;;;609.53;568.03;;;;;;;25.83;100.00;101241.16;5143146;27;20158;-76
2021/06/08 09:33:47;;;;;;;703.60;653.70;;;;;;;25.79;100.00;101243.41;5142005;27;20468;-78
2021/06/08 09:36:15;;;;;;;730.73;678.53;;;;;;;25.80;100.00;101234.28;5131582;27;20399;-78
2021/06/08 09:38:50;;;;;;;749.23;696.53;;;;;;;25.89;100.00;101238.53;5131432;27;20499;-77
2021/06/08 09:41:15;;;;;;;642.03;598.57;;;;;;;25.87;100.00;101239.75;5133384;27;20476;-76
2021/06/08 09:44:19;;;;;;;812.80;754.53;;;;;;;26.04;100.00;101234.94;5152366;27;20403;-79
2021/06/08 09:46:54;;;;;;;671.77;624.97;;;;;;;26.42;100.00;101228.31;5128329;27;20188;-77
2021/06/08 09:49:37;;;;;;;626.53;582.43;;;;;;;26.91;100.00;101230.13;5151919;27;20900;-78
2021/06/08 09:52:08;;;;;;;694.03;646.07;;;;;;;27.06;100.00;101240.84;5152140;27;20399;-77
2021/06/08 09:54:45;;;;;;;521.53;483.93;;;;;;;27.26;100.00;101233.66;5140851;27;20612;-79
2021/06/08 09:57:24;;;;;;;474.20;443.83;;;;;;;27.37;100.00;101232.28;5131661;27;20392;-75
2021/06/08 10:00:06;;;;;;;431.33;402.90;;;;;;;27.42;100.00;101231.66;5131519;27;20424;-79
2021/06/08 10:02:33;;;;;;;481.53;449.23;;;;;;;27.46;100.00;101232.94;5131492;28;20407;-76
2021/06/08 10:05:24;;;;;;;378.77;354.63;;;;;;;27.51;100.00;101223.22;5131306;28;20399;-80
2021/06/08 10:08:00;;;;;;;343.70;321.93;;;;;;;27.03;100.00;101227.69;5131914;28;20475;-80
2021/06/08 10:10:34;;;;;;;500.07;465.87;;;;;;;26.81;100.00;101241.25;5131890;28;20383;-80
2021/06/08 10:13:08;;;;;;;542.67;506.27;;;;;;;27.12;100.00;101241.88;5133958;27;20420;-79
2021/06/08 10:15:55;;;;;;;663.73;616.40;;;;;;;26.99;100.00;101239.94;5135303;27;20521;-78
2021/06/08 10:18:21;;;;;;;727.77;676.87;;;;;;;27.00;100.00;101241.59;5135151;27;20388;-75
2021/06/08 10:21:04;;;;;;;680.27;633.47;;;;;;;27.03;100.00;101242.03;5135038;27;20980;-79
2021/06/08 10:23:33;;;;;;;718.83;669.70;;;;;;;26.96;100.00;101235.75;5145462;27;20215;-80
2021/06/08 10:26:02;;;;;;;761.70;708.70;;;;;;;26.62;100.00;101233.03;5137226;27;20444;-77
2021/06/08 10:28:29;;;;;;;788.33;731.63;;;;;;;26.66;100.00;101232.44;5154568;27;20395;-76
2021/06/08 10:30:56;;;;;;;762.10;707.83;;;;;;;26.45;100.00;101229.75;5138265;27;20406;-76
2021/06/08 10:33:24;;;;;;;767.40;713.37;;;;;;;26.40;100.00;101221.44;5156835;27;20912;-76
2021/06/08 10:35:51;;;;;;;711.80;661.27;;;;;;;26.21;100.00;101220.19;5138387;27;20452;-75
2021/06/08 10:38:17;;;;;;;684.30;634.17;;;;;;;26.27;100.00;101216.72;5155659;27;20431;-79
2021/06/08 10:40:44;;;;;;;854.47;790.87;;;;;;;26.31;100.00;101206.41;5155802;27;20459;-72
2021/06/08 10:43:15;;;;;;;938.93;868.60;;;;;;;26.13;100.00;101209.56;5148861;27;20917;-79
2021/06/08 10:45:42;;;;;;;1005.00;923.40;;;;;;;26.06;100.00;101200.56;5152368;27;20400;-80
2021/06/08 10:48:20;;;;;;;966.03;887.63;;;;;;;26.12;100.00;101192.56;5142079;27;20830;-75
2021/06/08 10:51:07;;;;;;;906.60;839.83;;;;;;;25.90;100.00;101193.59;5155379;27;20403;-78
2021/06/08 10:53:36;;;;;;;845.20;784.20;;;;;;;25.64;100.00;101196.81;5144512;27;20846;-82